Time;durP1;ratioP1;P1;durP2;ratioP2;P2;SDS_P1;SDS_P2;PMS_P1;PMS_P2;Temp;Humidity;BMP_temperature;BMP_pressure;BME280_temperature;BME280_humidity;BME280_pressure;Samples;Min_cycle;Max_cycle;Signal;HPM_P1;HPM_P2
2021/01/11 00:00:14;;;;;;;21.92;9.75;;;;;;;-5.71;79.26;97830.09;4918378;29;20479;-80
2021/01/11 00:02:40;;;;;;;20.45;8.63;;;;;;;-5.65;79.26;97827.06;4949721;28;20304;-80
2021/01/11 00:05:07;;;;;;;16.38;7.55;;;;;;;-5.73;79.37;97819.28;4934523;29;20160;-78
2021/01/11 00:07:33;;;;;;;13.60;6.03;;;;;;;-5.75;79.31;97821.94;4934832;29;20196;-80
2021/01/11 00:10:00;;;;;;;13.90;6.93;;;;;;;-5.76;79.47;97817.78;4934238;29;20065;-80
2021/01/11 00:12:25;;;;;;;14.18;7.15;;;;;;;-5.87;79.60;97823.75;4933036;29;20398;-80
2021/01/11 00:14:51;;;;;;;19.98;9.50;;;;;;;-5.86;80.60;97830.44;4892598;29;20039;-80
2021/01/11 00:17:16;;;;;;;20.75;9.13;;;;;;;-5.89;79.12;97835.75;4945224;28;20403;-80
2021/01/11 00:19:42;;;;;;;29.35;12.25;;;;;;;-5.96;79.10;97834.66;4931868;29;20150;-80
2021/01/11 00:22:11;;;;;;;29.83;12.63;;;;;;;-5.93;79.14;97842.00;4927970;29;20035;-80
2021/01/11 00:24:36;;;;;;;41.50;19.38;;;;;;;-5.96;78.57;97844.81;4950126;29;20042;-80
2021/01/11 00:27:02;;;;;;;49.05;22.05;;;;;;;-6.09;78.22;97839.91;4930261;29;20035;-78
2021/01/11 00:29:28;;;;;;;34.50;16.40;;;;;;;-6.10;78.71;97847.63;4917961;29;20270;-78
2021/01/11 00:31:56;;;;;;;31.10;15.98;;;;;;;-6.14;79.76;97849.59;4950094;28;20047;-80
2021/01/11 00:34:26;;;;;;;29.42;12.55;;;;;;;-6.07;79.09;97843.13;4928016;29;20090;-80
2021/01/11 00:36:58;;;;;;;28.17;12.73;;;;;;;-6.04;78.43;97847.16;4911989;29;20095;-80
2021/01/11 00:39:25;;;;;;;39.85;15.52;;;;;;;-6.06;79.34;97856.63;4917801;29;20035;-80
2021/01/11 00:41:55;;;;;;;31.90;14.10;;;;;;;-6.17;79.41;97852.38;4914383;29;20035;-80
2021/01/11 00:44:21;;;;;;;25.10;11.65;;;;;;;-6.11;79.37;97840.97;4932150;29;20041;-80
2021/01/11 00:46:46;;;;;;;30.88;11.90;;;;;;;-6.07;79.47;97848.19;4933152;29;20043;-80
2021/01/11 00:49:12;;;;;;;38.05;14.05;;;;;;;-6.05;80.04;97845.53;4930940;29;20086;-80
2021/01/11 00:51:38;;;;;;;29.30;12.93;;;;;;;-6.05;80.16;97836.22;4909625;29;20051;-80
2021/01/11 00:54:04;;;;;;;27.58;11.38;;;;;;;-6.00;79.87;97833.28;4949532;29;20505;-81
2021/01/11 00:56:33;;;;;;;23.30;10.25;;;;;;;-5.99;79.94;97829.03;4933444;29;20035;-80
2021/01/11 00:58:58;;;;;;;21.00;8.63;;;;;;;-5.93;80.43;97818.34;4932355;29;20069;-78
2021/01/11 01:01:24;;;;;;;20.38;8.40;;;;;;;-5.87;80.55;97825.47;4933131;29;20023;-80
2021/01/11 01:03:50;;;;;;;19.98;8.13;;;;;;;-5.82;80.05;97820.84;4929487;29;20048;-77
2021/01/11 01:06:17;;;;;;;23.80;9.73;;;;;;;-5.80;79.73;97824.06;4949133;29;20093;-78
2021/01/11 01:08:43;;;;;;;18.23;8.02;;;;;;;-5.77;80.07;97823.00;4933505;29;20122;-78
2021/01/11 01:11:10;;;;;;;12.82;6.07;;;;;;;-5.71;80.47;97808.06;4932790;29;20115;-80
2021/01/11 01:13:36;;;;;;;15.75;7.10;;;;;;;-5.63;81.47;97810.00;4931180;29;20065;-80
2021/01/11 01:16:03;;;;;;;19.92;7.55;;;;;;;-5.59;80.62;97806.25;4916135;29;20023;-80
2021/01/11 01:18:29;;;;;;;18.40;7.20;;;;;;;-5.50;79.43;97805.53;4932521;29;20034;-81
2021/01/11 01:20:54;;;;;;;15.40;7.38;;;;;;;-5.42;78.27;97804.88;4915497;29;20039;-80
2021/01/11 01:23:20;;;;;;;17.40;8.40;;;;;;;-5.40;77.95;97808.09;4932059;29;20144;-80
2021/01/11 01:25:46;;;;;;;16.25;7.55;;;;;;;-5.62;77.41;97804.00;4929600;29;20058;-80
2021/01/11 01:28:12;;;;;;;14.10;6.53;;;;;;;-5.76;77.67;97814.47;4916166;29;20035;-80
2021/01/11 01:30:37;;;;;;;15.10;7.00;;;;;;;-5.87;77.43;97813.59;4900202;29;20031;-80
2021/01/11 01:33:04;;;;;;;13.38;7.50;;;;;;;-5.95;78.44;97815.94;4931440;29;20066;-80
2021/01/11 01:35:30;;;;;;;20.08;7.63;;;;;;;-5.95;78.61;97823.56;4932213;29;20161;-78
2021/01/11 01:37:56;;;;;;;12.85;5.80;;;;;;;-5.98;78.28;97828.09;4949688;29;20035;-80
2021/01/11 01:40:21;;;;;;;16.42;7.25;;;;;;;-6.06;78.81;97829.53;4916712;29;20446;-80
2021/01/11 01:42:47;;;;;;;13.85;7.07;;;;;;;-6.04;79.20;97827.66;4932475;29;20047;-80
2021/01/11 01:45:13;;;;;;;15.32;6.78;;;;;;;-6.04;79.02;97837.81;4917260;29;20048;-81
2021/01/11 01:47:39;;;;;;;15.35;6.95;;;;;;;-6.05;79.10;97826.06;4932244;29;20398;-80
2021/01/11 01:50:07;;;;;;;17.98;7.93;;;;;;;-6.07;79.55;97838.03;4932132;29;20040;-81
2021/01/11 01:52:34;;;;;;;17.48;7.25;;;;;;;-6.06;79.96;97847.28;4932893;29;20386;-81
2021/01/11 01:55:00;;;;;;;17.20;8.05;;;;;;;-6.11;79.55;97861.25;4917540;29;20035;-80
2021/01/11 01:57:26;;;;;;;17.17;7.57;;;;;;;-6.19;79.08;97866.09;4929234;29;20028;-80
2021/01/11 01:59:52;;;;;;;19.33;8.93;;;;;;;-6.22;78.96;97867.97;4944792;29;20042;-80
2021/01/11 02:02:19;;;;;;;23.38;8.38;;;;;;;-6.27;78.24;97865.00;4929573;29;20122;-80
2021/01/11 02:04:44;;;;;;;16.27;7.43;;;;;;;-6.28;78.14;97865.91;4930506;29;20047;-80
2021/01/11 02:07:16;;;;;;;22.35;9.40;;;;;;;-6.40;77.85;97857.53;4930407;29;20031;-80
2021/01/11 02:09:48;;;;;;;21.42;9.05;;;;;;;-6.34;77.72;97855.44;4902059;29;20118;-80
2021/01/11 02:12:21;;;;;;;21.08;9.15;;;;;;;-6.43;77.31;97857.75;4898225;29;20039;-80
2021/01/11 02:15:14;;;;;;;17.98;7.68;;;;;;;-6.56;78.00;97857.13;4932235;29;20031;-80
2021/01/11 02:17:46;;;;;;;18.73;7.47;;;;;;;-6.53;78.12;97863.69;4933048;29;20035;-80
2021/01/11 02:20:34;;;;;;;14.02;7.07;;;;;;;-6.52;78.10;97852.63;4932117;29;20039;-80
2021/01/11 02:23:30;;;;;;;15.77;6.35;;;;;;;-6.51;78.92;97854.22;4932401;29;20035;-80
2021/01/11 02:26:05;;;;;;;14.93;7.07;;;;;;;-6.47;79.82;97843.75;4949397;29;20035;-80
2021/01/11 02:28:49;;;;;;;13.18;5.95;;;;;;;-6.31;79.67;97857.75;4932420;29;20474;-80
2021/01/11 02:31:16;;;;;;;14.65;6.15;;;;;;;-6.14;78.97;97854.69;4945215;29;20046;-80
2021/01/11 02:33:44;;;;;;;16.70;7.93;;;;;;;-6.18;78.36;97855.06;4932031;29;20031;-81
2021/01/11 02:36:09;;;;;;;16.90;6.68;;;;;;;-6.17;79.23;97857.44;4900288;29;20086;-80
2021/01/11 02:38:37;;;;;;;15.35;6.75;;;;;;;-6.23;78.34;97852.88;4932626;29;20891;-81
2021/01/11 02:41:03;;;;;;;16.17;7.10;;;;;;;-6.23;78.77;97851.13;4949126;29;20035;-80
2021/01/11 02:43:29;;;;;;;16.40;7.88;;;;;;;-6.25;78.59;97854.72;4949350;29;20034;-80
2021/01/11 02:45:55;;;;;;;14.32;6.15;;;;;;;-6.26;78.89;97851.38;4932687;29;20114;-80
2021/01/11 02:48:28;;;;;;;10.25;5.25;;;;;;;-6.34;78.67;97846.13;4951046;29;20175;-80
2021/01/11 02:51:21;;;;;;;14.48;6.22;;;;;;;-6.35;78.70;97839.44;4912156;29;20085;-80
2021/01/11 02:54:08;;;;;;;17.15;6.38;;;;;;;-6.24;79.15;97849.56;4951643;29;20110;-80
2021/01/11 02:56:58;;;;;;;12.07;5.47;;;;;;;-6.28;79.54;97837.22;4929219;29;20035;-80
2021/01/11 02:59:32;;;;;;;11.52;4.88;;;;;;;-6.18;79.05;97833.03;4933006;29;20097;-80
2021/01/11 03:02:04;;;;;;;14.15;6.13;;;;;;;-6.16;78.38;97832.94;4937823;28;20041;-80
2021/01/11 03:04:30;;;;;;;13.95;6.03;;;;;;;-6.09;77.61;97821.38;4938378;29;20078;-80
2021/01/11 03:07:01;;;;;;;17.15;5.60;;;;;;;-6.22;77.43;97814.75;4921842;29;20455;-80
2021/01/11 03:09:28;;;;;;;14.63;6.38;;;;;;;-6.15;77.00;97814.25;4922107;29;20027;-80
2021/01/11 03:11:55;;;;;;;10.98;5.18;;;;;;;-6.22;77.25;97817.28;4937551;29;20399;-80
2021/01/11 03:14:22;;;;;;;12.90;5.38;;;;;;;-6.17;77.62;97816.09;4938023;29;20102;-80
2021/01/11 03:16:48;;;;;;;12.65;5.00;;;;;;;-6.06;79.04;97800.84;4937990;29;20031;-80
2021/01/11 03:19:15;;;;;;;13.25;5.97;;;;;;;-6.10;77.92;97807.06;4937757;29;20031;-79
2021/01/11 03:21:40;;;;;;;14.95;6.60;;;;;;;-6.16;75.89;97793.16;4937647;29;20046;-80
2021/01/11 03:24:09;;;;;;;12.10;5.75;;;;;;;-6.33;75.49;97802.13;4937701;29;20387;-80
2021/01/11 03:26:35;;;;;;;12.02;5.35;;;;;;;-6.50;75.04;97800.91;4921686;29;20035;-80
2021/01/11 03:29:01;;;;;;;11.70;5.35;;;;;;;-6.57;75.58;97796.47;4937056;29;20042;-80
2021/01/11 03:31:27;;;;;;;10.63;5.10;;;;;;;-6.61;76.84;97793.38;4937734;29;20367;-80
2021/01/11 03:33:53;;;;;;;13.02;5.25;;;;;;;-6.42;76.89;97797.78;4900004;29;20137;-79
2021/01/11 03:36:20;;;;;;;12.23;5.07;;;;;;;-6.37;76.37;97800.75;4954489;29;20390;-80
2021/01/11 03:38:46;;;;;;;10.38;4.03;;;;;;;-6.32;77.13;97801.19;4937763;29;20034;-80
2021/01/11 03:41:12;;;;;;;8.77;4.40;;;;;;;-6.29;76.16;97798.44;4954274;29;20058;-80
2021/01/11 03:43:42;;;;;;;11.88;5.18;;;;;;;-6.25;76.29;97792.19;4954165;29;20032;-80
2021/01/11 03:46:09;;;;;;;14.73;6.60;;;;;;;-6.19;76.05;97797.69;4937582;29;20037;-80
2021/01/11 03:48:35;;;;;;;14.70;6.80;;;;;;;-6.21;76.33;97796.06;4937313;29;20039;-80
2021/01/11 03:51:01;;;;;;;16.27;6.45;;;;;;;-6.21;76.46;97795.28;4953543;29;20039;-80
2021/01/11 03:53:27;;;;;;;13.63;5.88;;;;;;;-6.22;76.32;97802.06;4937375;29;20078;-80
2021/01/11 03:55:53;;;;;;;14.00;5.95;;;;;;;-6.22;76.17;97802.06;4937244;29;20031;-80
2021/01/11 03:58:19;;;;;;;11.77;5.15;;;;;;;-6.26;76.66;97790.56;4920660;29;20047;-80
2021/01/11 04:00:47;;;;;;;11.15;5.20;;;;;;;-6.35;76.98;97793.03;4950616;29;20086;-80
2021/01/11 04:03:13;;;;;;;13.98;5.15;;;;;;;-6.41;77.24;97794.31;4934173;29;20515;-80
2021/01/11 04:05:42;;;;;;;9.10;4.07;;;;;;;-6.48;77.25;97808.41;4950888;29;20043;-80
2021/01/11 04:08:11;;;;;;;10.55;4.43;;;;;;;-6.48;76.62;97804.13;4934742;29;20078;-80
2021/01/11 04:10:36;;;;;;;10.60;3.75;;;;;;;-6.54;77.40;97799.56;4919610;29;20046;-80
2021/01/11 04:13:03;;;;;;;10.15;3.95;;;;;;;-6.51;77.95;97806.09;4929614;29;20475;-80
2021/01/11 04:15:29;;;;;;;9.02;4.28;;;;;;;-6.40;78.28;97804.31;4936010;29;20081;-79
2021/01/11 04:17:54;;;;;;;9.45;4.20;;;;;;;-6.54;77.62;97799.56;4891628;29;20693;-80
2021/01/11 04:20:20;;;;;;;9.80;4.63;;;;;;;-6.45;77.77;97808.97;4898447;29;20032;-80
2021/01/11 04:22:46;;;;;;;10.43;4.70;;;;;;;-6.40;77.58;97814.47;4937140;29;20035;-79
2021/01/11 04:25:12;;;;;;;8.80;3.95;;;;;;;-6.41;77.80;97819.66;4936498;29;20090;-80
2021/01/11 04:27:37;;;;;;;6.72;3.58;;;;;;;-6.47;77.95;97820.16;4936033;29;20050;-80
2021/01/11 04:30:06;;;;;;;10.77;4.40;;;;;;;-6.66;78.25;97811.44;4931511;29;20031;-80
2021/01/11 04:32:36;;;;;;;10.13;3.95;;;;;;;-6.60;78.19;97812.69;4954016;29;20439;-80
2021/01/11 04:35:06;;;;;;;9.60;4.57;;;;;;;-6.61;78.40;97813.63;4920382;29;20026;-80
2021/01/11 04:37:32;;;;;;;9.48;4.00;;;;;;;-6.60;78.01;97810.97;4936406;29;20067;-80
2021/01/11 04:39:58;;;;;;;9.93;4.10;;;;;;;-6.56;78.58;97815.78;4936207;29;20046;-80
2021/01/11 04:42:34;;;;;;;10.85;4.32;;;;;;;-6.62;78.04;97802.69;4953204;29;20043;-80
2021/01/11 04:45:00;;;;;;;8.52;4.07;;;;;;;-6.54;78.14;97813.97;4936351;29;20031;-80
2021/01/11 04:47:26;;;;;;;11.40;4.57;;;;;;;-6.56;78.95;97815.78;4936222;29;20057;-80
2021/01/11 04:49:53;;;;;;;10.38;4.05;;;;;;;-6.56;78.82;97810.72;4935585;29;20023;-80
2021/01/11 04:52:18;;;;;;;9.90;4.18;;;;;;;-6.52;78.34;97812.09;4929988;29;20499;-80
2021/01/11 04:54:48;;;;;;;10.55;4.68;;;;;;;-6.63;77.89;97812.94;4936574;29;20474;-80
2021/01/11 04:57:14;;;;;;;10.27;4.00;;;;;;;-6.51;78.15;97803.56;4936185;29;20058;-80
2021/01/11 04:59:48;;;;;;;11.18;4.40;;;;;;;-6.56;78.04;97805.66;4935300;29;20039;-79
2021/01/11 05:02:20;;;;;;;10.23;3.57;;;;;;;-6.56;77.97;97805.66;4934004;29;20052;-80
2021/01/11 05:04:45;;;;;;;10.93;5.28;;;;;;;-6.52;78.38;97792.63;4935612;29;20038;-80
2021/01/11 05:07:15;;;;;;;9.20;3.50;;;;;;;-6.51;78.29;97798.50;4924919;28;20050;-80
2021/01/11 05:09:44;;;;;;;10.07;4.47;;;;;;;-6.45;78.61;97798.03;4935617;29;20717;-79
2021/01/11 05:12:11;;;;;;;12.30;4.55;;;;;;;-6.44;79.17;97797.13;4935810;29;20071;-80
2021/01/11 05:14:37;;;;;;;9.80;4.65;;;;;;;-6.40;79.46;97801.78;4917768;29;20672;-80
2021/01/11 05:17:04;;;;;;;10.18;4.28;;;;;;;-6.33;79.17;97794.50;4935587;29;20040;-80
2021/01/11 05:19:30;;;;;;;27.58;9.95;;;;;;;-6.33;78.84;97789.44;4952510;29;20035;-80
2021/01/11 05:21:56;;;;;;;31.58;11.05;;;;;;;-6.38;78.64;97778.88;4952964;28;20114;-80
2021/01/11 05:24:32;;;;;;;15.90;6.03;;;;;;;-6.48;78.44;97780.53;4935662;29;20027;-77
2021/01/11 05:27:08;;;;;;;11.57;4.78;;;;;;;-6.43;78.71;97779.22;4919811;29;20035;-77
2021/01/11 05:29:34;;;;;;;14.85;5.43;;;;;;;-6.35;77.52;97788.78;4919103;29;20049;-77
2021/01/11 05:32:03;;;;;;;13.75;5.97;;;;;;;-6.49;76.86;97781.47;4919520;29;20027;-80
2021/01/11 05:34:53;;;;;;;12.20;5.97;;;;;;;-6.66;76.94;97776.00;4919647;29;20374;-79
2021/01/11 05:37:31;;;;;;;14.07;5.45;;;;;;;-6.70;78.18;97784.78;4951950;29;20042;-80
2021/01/11 05:40:09;;;;;;;8.25;4.65;;;;;;;-6.76;78.23;97785.25;4934990;29;20026;-80
2021/01/11 05:42:38;;;;;;;12.93;5.07;;;;;;;-6.65;78.51;97779.31;4935456;29;20023;-80
2021/01/11 05:45:08;;;;;;;11.40;4.95;;;;;;;-6.66;78.52;97782.81;4918967;29;20031;-80
2021/01/11 05:47:51;;;;;;;11.55;4.88;;;;;;;-6.60;78.20;97770.47;4935298;29;20035;-80
2021/01/11 05:50:20;;;;;;;9.85;4.40;;;;;;;-6.59;78.66;97774.59;4952192;29;20186;-79
2021/01/11 05:52:46;;;;;;;10.38;5.15;;;;;;;-6.51;78.73;97773.16;4934843;29;20042;-80
2021/01/11 05:55:19;;;;;;;8.98;4.45;;;;;;;-6.59;77.51;97772.06;4935668;29;20035;-80
2021/01/11 05:58:01;;;;;;;8.13;3.65;;;;;;;-6.60;77.72;97775.53;4919601;29;20068;-80
2021/01/11 06:00:33;;;;;;;9.75;3.70;;;;;;;-6.56;77.89;97767.66;4933544;29;20707;-77
2021/01/11 06:03:00;;;;;;;8.90;3.55;;;;;;;-6.56;77.23;97773.56;4943938;28;20134;-77
2021/01/11 06:05:28;;;;;;;8.55;3.17;;;;;;;-6.68;76.49;97770.25;4934292;29;20035;-77
2021/01/11 06:07:54;;;;;;;8.77;3.95;;;;;;;-6.65;77.19;97772.56;4912462;29;20042;-77
2021/01/11 06:10:21;;;;;;;9.25;3.70;;;;;;;-6.67;77.14;97779.44;4933455;29;20034;-77
2021/01/11 06:12:48;;;;;;;9.50;2.63;;;;;;;-6.74;76.54;97782.59;4934503;29;20023;-77
2021/01/11 06:15:18;;;;;;;7.43;3.72;;;;;;;-6.79;76.55;97776.13;4918098;29;20031;-77
2021/01/11 06:17:45;;;;;;;9.07;3.70;;;;;;;-6.68;77.69;97775.31;4951476;29;20070;-77
2021/01/11 06:20:19;;;;;;;8.00;3.85;;;;;;;-6.77;79.13;97763.38;4928208;29;20206;-77
2021/01/11 06:22:45;;;;;;;9.35;3.97;;;;;;;-6.62;78.08;97763.91;4905778;29;20027;-76
2021/01/11 06:25:22;;;;;;;7.97;4.00;;;;;;;-6.70;77.95;97771.28;4950578;29;20506;-77
2021/01/11 06:27:55;;;;;;;9.82;4.03;;;;;;;-6.71;77.72;97770.50;4951145;29;20031;-77
2021/01/11 06:30:33;;;;;;;11.85;4.38;;;;;;;-6.74;77.89;97780.84;4917001;29;20137;-79
2021/01/11 06:33:24;;;;;;;10.23;4.15;;;;;;;-6.60;77.95;97777.22;4931881;29;20050;-80
2021/01/11 06:35:52;;;;;;;10.93;4.13;;;;;;;-6.47;78.57;97794.81;4938664;29;20441;-80
2021/01/11 06:38:18;;;;;;;9.70;3.53;;;;;;;-6.47;78.24;97795.63;4938379;29;20435;-79
2021/01/11 06:40:46;;;;;;;10.00;4.25;;;;;;;-6.39;78.10;97792.50;4955690;29;20126;-79
2021/01/11 06:43:14;;;;;;;11.75;4.60;;;;;;;-6.51;77.92;97788.38;4932487;29;20035;-80
2021/01/11 06:45:41;;;;;;;11.55;4.80;;;;;;;-6.52;78.22;97791.84;4938470;29;20423;-80
2021/01/11 06:48:12;;;;;;;11.00;4.65;;;;;;;-6.57;78.61;97788.88;4938089;29;20039;-80
2021/01/11 06:50:38;;;;;;;9.60;4.25;;;;;;;-6.51;78.78;97790.91;4922285;29;20039;-79
2021/01/11 06:53:04;;;;;;;12.18;4.95;;;;;;;-6.51;78.94;97793.44;4949701;29;20510;-79
2021/01/11 06:55:31;;;;;;;12.35;5.32;;;;;;;-6.48;78.44;97793.19;4955134;29;20769;-80
2021/01/11 06:57:59;;;;;;;12.45;4.78;;;;;;;-6.51;78.47;97784.13;4938553;29;20148;-80
2021/01/11 07:00:32;;;;;;;11.30;5.05;;;;;;;-6.58;78.30;97795.63;4938063;29;20048;-79
2021/01/11 07:02:58;;;;;;;10.88;4.70;;;;;;;-6.50;78.92;97795.84;4937092;29;20513;-79
2021/01/11 07:05:35;;;;;;;10.32;4.45;;;;;;;-6.62;78.09;97795.06;4938438;29;20031;-80
2021/01/11 07:08:19;;;;;;;10.93;5.22;;;;;;;-6.66;78.13;97791.19;4950251;29;20043;-80
2021/01/11 07:10:45;;;;;;;14.65;5.88;;;;;;;-6.53;78.70;97797.81;4922653;29;20475;-79
2021/01/11 07:13:18;;;;;;;14.02;6.20;;;;;;;-6.71;78.02;97783.16;4937855;29;20102;-80
2021/01/11 07:15:56;;;;;;;13.07;5.57;;;;;;;-6.74;78.63;97777.53;4955421;29;20046;-80
2021/01/11 07:18:37;;;;;;;12.95;6.03;;;;;;;-6.68;78.57;97787.16;4954959;29;20390;-80
2021/01/11 07:21:14;;;;;;;13.75;6.18;;;;;;;-6.63;77.70;97785.91;4954673;29;20027;-79
2021/01/11 07:23:40;;;;;;;15.38;5.82;;;;;;;-6.62;77.60;97784.94;4935324;29;20589;-79
2021/01/11 07:26:23;;;;;;;12.82;5.20;;;;;;;-6.72;78.46;97791.66;4935403;29;20035;-80
2021/01/11 07:28:52;;;;;;;12.60;5.68;;;;;;;-6.55;78.04;97797.94;4928835;29;20041;-79
2021/01/11 07:31:20;;;;;;;12.75;6.00;;;;;;;-6.56;78.09;97788.75;4954035;29;20661;-79
2021/01/11 07:33:51;;;;;;;11.27;5.82;;;;;;;-6.63;78.01;97785.91;4934333;29;20020;-80
2021/01/11 07:36:21;;;;;;;12.38;5.30;;;;;;;-6.60;78.47;97779.75;4935331;29;20070;-79
2021/01/11 07:38:47;;;;;;;10.77;5.07;;;;;;;-6.40;78.17;97778.19;4935252;29;20025;-80
2021/01/11 07:41:26;;;;;;;10.77;4.68;;;;;;;-6.50;77.15;97779.84;4935311;29;20070;-80
2021/01/11 07:43:53;;;;;;;10.05;4.55;;;;;;;-6.47;76.91;97772.81;4934975;29;20038;-79
2021/01/11 07:46:22;;;;;;;11.48;4.75;;;;;;;-6.54;76.56;97775.97;4934259;29;20035;-80
2021/01/11 07:48:48;;;;;;;9.98;5.25;;;;;;;-6.39;77.51;97767.16;4918957;29;20046;-80
2021/01/11 07:51:15;;;;;;;7.75;3.70;;;;;;;-6.38;75.91;97761.13;4934464;29;20031;-80
2021/01/11 07:53:41;;;;;;;10.00;4.22;;;;;;;-6.45;75.91;97767.63;4934297;29;20038;-80
2021/01/11 07:56:10;;;;;;;6.07;3.08;;;;;;;-6.58;74.98;97780.44;4934421;29;20047;-80
2021/01/11 07:58:40;;;;;;;8.15;3.90;;;;;;;-6.64;75.19;97789.34;4917499;29;20066;-80
2021/01/11 08:01:06;;;;;;;11.18;4.30;;;;;;;-6.68;75.35;97792.22;4918492;29;20042;-80
2021/01/11 08:03:32;;;;;;;8.68;4.20;;;;;;;-6.70;76.82;97799.97;4951843;28;20066;-80
2021/01/11 08:06:03;;;;;;;9.60;4.13;;;;;;;-6.63;77.74;97801.09;4934742;29;20031;-78
2021/01/11 08:08:33;;;;;;;11.60;5.20;;;;;;;-6.54;78.34;97798.75;4919538;29;20035;-78
2021/01/11 08:11:04;;;;;;;12.77;5.28;;;;;;;-6.45;77.92;97792.97;4934906;29;20108;-78
2021/01/11 08:13:29;;;;;;;11.27;4.55;;;;;;;-6.31;78.56;97795.19;4934373;29;20030;-77
2021/01/11 08:16:09;;;;;;;13.20;5.20;;;;;;;-6.31;78.38;97799.47;4952721;29;20061;-78
2021/01/11 08:18:35;;;;;;;13.38;6.43;;;;;;;-6.14;78.56;97800.66;4935395;29;20422;-78
2021/01/11 08:21:05;;;;;;;13.40;7.20;;;;;;;-6.12;78.54;97798.78;4918085;29;20038;-80
2021/01/11 08:23:31;;;;;;;12.80;5.25;;;;;;;-5.99;78.15;97799.41;4935024;29;20411;-80
2021/01/11 08:25:58;;;;;;;16.90;7.63;;;;;;;-5.90;78.06;97802.91;4934818;29;20090;-80
2021/01/11 08:28:24;;;;;;;36.38;15.70;;;;;;;-5.82;78.08;97802.28;4932187;29;20497;-80
2021/01/11 08:30:51;;;;;;;29.90;13.15;;;;;;;-5.79;77.69;97809.63;4934345;29;20122;-80
2021/01/11 08:33:17;;;;;;;30.35;11.85;;;;;;;-5.73;77.24;97799.78;4910434;29;20498;-80
2021/01/11 08:35:43;;;;;;;32.65;13.30;;;;;;;-5.66;77.57;97800.09;4929454;29;20447;-80
2021/01/11 08:38:11;;;;;;;48.25;19.85;;;;;;;-5.65;78.35;97789.03;4900413;29;20350;-80
2021/01/11 08:40:38;;;;;;;67.75;26.45;;;;;;;-5.55;78.98;97794.13;4933132;29;20269;-80
2021/01/11 08:43:11;;;;;;;31.83;13.55;;;;;;;-5.52;78.46;97792.16;4932085;29;20062;-80
2021/01/11 08:45:37;;;;;;;19.48;8.95;;;;;;;-5.38;78.69;97792.72;4947789;29;20043;-80
2021/01/11 08:48:07;;;;;;;60.83;23.75;;;;;;;-5.30;77.56;97796.22;4933149;28;20150;-80
2021/01/11 08:50:40;;;;;;;20.83;8.50;;;;;;;-5.08;76.12;97790.16;4909781;29;20035;-80
2021/01/11 08:53:25;;;;;;;17.20;9.13;;;;;;;-5.01;75.86;97795.50;4924956;29;20047;-81
2021/01/11 08:56:00;;;;;;;16.33;7.75;;;;;;;-4.92;76.51;97799.00;4946905;29;20078;-81
2021/01/11 08:58:28;;;;;;;12.60;5.93;;;;;;;-4.98;76.07;97791.94;4929527;29;20529;-81
2021/01/11 09:01:11;;;;;;;10.32;4.22;;;;;;;-5.21;77.79;97799.72;4926750;29;20042;-81
2021/01/11 09:03:53;;;;;;;11.18;4.90;;;;;;;-5.14;78.34;97802.56;4926008;29;20039;-80
2021/01/11 09:06:38;;;;;;;10.45;4.30;;;;;;;-5.07;78.19;97816.38;4932848;29;20110;-80
2021/01/11 09:09:08;;;;;;;9.02;3.97;;;;;;;-4.92;76.88;97820.16;4928506;29;20031;-81
2021/01/11 09:11:34;;;;;;;15.30;5.88;;;;;;;-4.82;75.73;97819.34;4949882;29;20035;-81
2021/01/11 09:14:08;;;;;;;21.15;11.80;;;;;;;-4.99;76.68;97823.31;4899760;29;20027;-81
2021/01/11 09:16:34;;;;;;;17.23;9.50;;;;;;;-4.89;77.29;97808.91;4914210;29;20035;-81
2021/01/11 09:19:10;;;;;;;12.95;6.60;;;;;;;-4.92;78.56;97809.16;4912274;29;20031;-81
2021/01/11 09:21:39;;;;;;;13.50;5.47;;;;;;;-4.67;78.41;97815.50;4916670;29;20046;-81
2021/01/11 09:24:05;;;;;;;10.98;4.38;;;;;;;-4.56;78.42;97810.31;4912255;29;20042;-81
2021/01/11 09:26:35;;;;;;;11.93;5.13;;;;;;;-4.47;78.12;97818.03;4930937;29;20526;-81
2021/01/11 09:29:02;;;;;;;12.32;5.30;;;;;;;-4.29;78.20;97805.50;4914897;29;20252;-81
2021/01/11 09:31:30;;;;;;;14.82;7.50;;;;;;;-4.20;78.18;97809.75;4928345;29;20039;-81
2021/01/11 09:33:55;;;;;;;12.80;5.38;;;;;;;-4.07;78.17;97812.84;4928267;29;20035;-81
2021/01/11 09:36:22;;;;;;;12.43;5.55;;;;;;;-3.97;77.89;97813.63;4945909;29;20044;-81
2021/01/11 09:38:48;;;;;;;11.35;5.20;;;;;;;-3.97;78.41;97818.72;4912425;29;20046;-84
2021/01/11 09:41:15;;;;;;;11.27;5.45;;;;;;;-3.83;78.44;97826.84;4932805;29;20027;-79
2021/01/11 09:43:42;;;;;;;12.52;5.15;;;;;;;-3.75;79.32;97829.53;4931477;29;20043;-79
2021/01/11 09:46:08;;;;;;;12.27;5.80;;;;;;;-3.74;79.67;97831.13;4915751;28;20505;-80
2021/01/11 09:48:34;;;;;;;13.40;6.32;;;;;;;-3.66;80.41;97828.69;4915695;29;20486;-80
2021/01/11 09:51:01;;;;;;;14.18;6.57;;;;;;;-3.52;79.68;97839.38;4949309;29;20098;-80
2021/01/11 09:53:26;;;;;;;16.42;7.22;;;;;;;-3.41;80.04;97834.09;4913144;29;20035;-80
2021/01/11 09:55:52;;;;;;;13.05;6.15;;;;;;;-3.27;80.37;97831.13;4916571;29;20032;-80
2021/01/11 09:58:18;;;;;;;13.80;6.35;;;;;;;-3.23;80.26;97834.97;4925574;29;20434;-80
2021/01/11 10:00:44;;;;;;;13.80;6.60;;;;;;;-3.07;79.80;97839.50;4930538;29;20365;-80
2021/01/11 10:03:10;;;;;;;13.07;6.65;;;;;;;-2.97;79.85;97836.09;4948036;28;20498;-80
2021/01/11 10:05:36;;;;;;;16.23;7.82;;;;;;;-2.91;80.06;97830.44;4912250;29;20031;-80
2021/01/11 10:08:02;;;;;;;12.88;6.68;;;;;;;-2.77;79.77;97827.38;4931940;28;20053;-80
2021/01/11 10:10:28;;;;;;;12.30;5.80;;;;;;;-2.66;79.22;97824.66;4913323;29;20482;-81
2021/01/11 10:12:55;;;;;;;13.68;5.68;;;;;;;-2.52;78.82;97828.44;4925845;29;20031;-82
2021/01/11 10:15:21;;;;;;;11.80;5.68;;;;;;;-2.33;78.41;97827.50;4931978;29;20023;-82
2021/01/11 10:17:46;;;;;;;11.27;5.38;;;;;;;-2.18;77.98;97827.78;4932216;29;20051;-82
2021/01/11 10:20:14;;;;;;;11.68;5.75;;;;;;;-2.16;77.44;97828.44;4883617;29;20039;-82
2021/01/11 10:22:41;;;;;;;10.55;5.88;;;;;;;-2.15;76.65;97829.25;4917528;29;20119;-82
2021/01/11 10:25:08;;;;;;;12.55;5.65;;;;;;;-2.14;76.18;97831.66;4931385;29;20465;-82
2021/01/11 10:27:34;;;;;;;10.68;5.85;;;;;;;-2.10;76.73;97827.03;4931129;29;20562;-82
2021/01/11 10:30:01;;;;;;;11.45;4.68;;;;;;;-2.15;76.82;97835.13;4927474;29;20118;-82
2021/01/11 10:32:28;;;;;;;8.77;4.38;;;;;;;-2.09;76.80;97823.53;4948885;29;20074;-82
2021/01/11 10:34:55;;;;;;;10.25;4.70;;;;;;;-1.97;75.48;97824.09;4929973;29;20171;-82
2021/01/11 10:37:21;;;;;;;8.32;4.13;;;;;;;-1.98;76.75;97819.97;4912094;29;20090;-82
2021/01/11 10:39:47;;;;;;;7.75;3.97;;;;;;;-1.95;77.20;97819.66;4910109;29;20067;-82
2021/01/11 10:42:13;;;;;;;8.50;4.38;;;;;;;-1.87;77.44;97812.06;4948814;29;20094;-83
2021/01/11 10:44:38;;;;;;;10.10;4.15;;;;;;;-1.84;77.43;97816.06;4922022;29;20035;-83
2021/01/11 10:47:04;;;;;;;8.45;4.25;;;;;;;-1.68;77.01;97828.13;4912726;29;20043;-83
2021/01/11 10:49:30;;;;;;;10.38;5.18;;;;;;;-1.63;76.17;97826.72;4912658;29;20087;-83
2021/01/11 10:51:56;;;;;;;8.43;4.45;;;;;;;-1.56;75.85;97814.16;4911219;29;20035;-83
2021/01/11 10:54:23;;;;;;;10.27;5.10;;;;;;;-1.57;76.29;97810.81;4923588;29;20043;-83
2021/01/11 10:56:50;;;;;;;9.02;4.18;;;;;;;-1.52;77.20;97810.38;4913269;29;20019;-83
2021/01/11 10:59:16;;;;;;;8.25;4.38;;;;;;;-1.49;76.15;97812.63;4898588;29;20027;-83
2021/01/11 11:01:41;;;;;;;7.90;4.05;;;;;;;-1.36;76.74;97817.31;4940261;28;20042;-83
2021/01/11 11:04:08;;;;;;;8.07;3.47;;;;;;;-1.27;75.42;97808.72;4944376;29;20031;-83
2021/01/11 11:06:34;;;;;;;7.53;4.00;;;;;;;-1.27;74.38;97805.38;4930884;29;20046;-83
2021/01/11 11:09:00;;;;;;;7.22;3.83;;;;;;;-1.11;74.35;97808.00;4930698;29;20374;-83
2021/01/11 11:11:26;;;;;;;8.68;4.40;;;;;;;-1.05;73.39;97807.38;4899916;29;20034;-83
2021/01/11 11:13:52;;;;;;;8.55;4.13;;;;;;;-0.99;74.05;97804.19;4930826;29;20542;-83
2021/01/11 11:16:17;;;;;;;7.53;3.95;;;;;;;-0.85;73.60;97807.13;4930009;29;20070;-83
2021/01/11 11:18:46;;;;;;;7.20;3.90;;;;;;;-0.74;71.66;97798.34;4915541;29;20040;-83
2021/01/11 11:21:12;;;;;;;7.43;3.95;;;;;;;-0.65;71.92;97788.00;4932442;29;20035;-83
2021/01/11 11:23:38;;;;;;;8.13;3.85;;;;;;;-0.57;72.14;97784.63;4918206;29;20031;-83
2021/01/11 11:26:05;;;;;;;6.93;4.47;;;;;;;-0.62;70.91;97780.00;4933247;29;20426;-83
2021/01/11 11:28:35;;;;;;;8.85;4.63;;;;;;;-0.48;71.17;97772.66;4933931;29;20036;-83
2021/01/11 11:31:02;;;;;;;8.25;3.95;;;;;;;-0.51;71.92;97760.19;4933531;29;20371;-83
2021/01/11 11:33:28;;;;;;;7.85;4.10;;;;;;;-0.44;72.11;97768.81;4933824;29;20023;-83